Time,TemperatureF,DewpointF,PressureIn,WindDirection,WindDirectionDegrees,WindSpeedMPH,WindSpeedGustMPH,Humidity,HourlyPrecipIn,Conditions,Clouds,dailyrainin,SoftwareType,DateUTC
2013-02-05 00:03:00,44.9,43.6,30.11,South,170,0.0,0.0,95,0.00,RA,,0.00,WeatherDisplay:10.37,2013-02-05 08:03:00,
2013-02-05 00:08:00,45.0,43.7,30.11,SSW,204,0.0,0.0,95,0.00,RA,,0.00,WeatherDisplay:10.37,2013-02-05 08:08:00,
2013-02-05 00:13:00,45.1,43.8,30.11,SSW,205,0.0,0.0,95,0.00,CLR,,0.00,WeatherDisplay:10.37,2013-02-05 08:13:00,
2013-02-05 00:18:00,45.0,43.7,30.11,WNW,302,0.0,0.0,95,0.00,CLR,,0.00,WeatherDisplay:10.37,2013-02-05 08:18:00,
2013-02-05 00:23:00,44.8,43.5,30.10,NW,322,0.0,0.0,95,0.00,CLR,,0.00,WeatherDisplay:10.37,2013-02-05 08:23:00,
2013-02-05 00:28:00,45.0,43.7,30.11,NW,322,0.0,0.0,95,0.00,CLR,,0.00,WeatherDisplay:10.37,2013-02-05 08:28:00,
2013-02-05 00:33:00,45.1,43.8,30.11,WSW,249,0.0,0.0,95,0.00,CLR,,0.00,WeatherDisplay:10.37,2013-02-05 08:33:00,
2013-02-05 00:38:00,45.3,44.0,30.11,West,278,0.0,0.0,95,0.00,CLR,,0.00,WeatherDisplay:10.37,2013-02-05 08:38:00,
2013-02-05 00:43:00,45.3,44.0,30.11,West,278,0.0,0.0,95,0.00,CLR,,0.00,WeatherDisplay:10.37,2013-02-05 08:43:00,
2013-02-05 00:48:00,45.3,44.0,30.11,West,278,0.0,0.0,95,0.00,CLR,,0.00,WeatherDisplay:10.37,2013-02-05 08:48:00,
2013-02-05 00:53:00,45.2,43.9,30.11,West,278,0.0,0.0,95,0.01,CLR,,0.00,WeatherDisplay:10.37,2013-02-05 08:53:00,
2013-02-05 00:59:00,45.2,43.9,30.11,West,278,0.0,0.0,95,0.00,CLR,,0.00,WeatherDisplay:10.37,2013-02-05 08:59:00,
2013-02-05 01:04:00,45.1,43.8,30.11,West,278,0.0,0.0,95,0.00,CLR,,0.00,WeatherDisplay:10.37,2013-02-05 09:04:00,
2013-02-05 01:09:00,45.2,43.9,30.11,West,274,0.0,0.0,95,0.00,CLR,,0.00,WeatherDisplay:10.37,2013-02-05 09:09:00,
2013-02-05 01:14:00,45.2,43.9,30.11,West,275,0.0,0.0,95,0.00,CLR,,0.00,WeatherDisplay:10.37,2013-02-05 09:14:00,
2013-02-05 01:19:00,45.2,43.9,30.11,West,276,0.0,0.0,95,0.00,CLR,,0.00,WeatherDisplay:10.37,2013-02-05 09:19:00,
2013-02-05 01:24:00,45.2,43.9,30.11,West,275,0.0,0.0,95,0.00,CLR,,0.00,WeatherDisplay:10.37,2013-02-05 09:24:00,
2013-02-05 01:30:00,45.1,43.8,30.11,West,281,0.0,0.0,95,0.00,CLR,,0.00,WeatherDisplay:10.37,2013-02-05 09:30:00,
2013-02-05 01:35:00,45.1,43.8,30.11,NNW,338,0.0,0.0,95,0.00,CLR,,0.00,WeatherDisplay:10.37,2013-02-05 09:35:00,
2013-02-05 01:40:00,45.1,43.8,30.11,NNW,338,0.0,0.0,95,0.00,CLR,,0.00,WeatherDisplay:10.37,2013-02-05 09:40:00,
2013-02-05 01:45:00,45.1,43.8,30.11,NW,310,2.3,2.3,95,0.00,CLR,,0.00,WeatherDisplay:10.37,2013-02-05 09:45:00,
2013-02-05 01:50:00,45.1,43.8,30.11,NW,311,0.0,0.0,95,0.00,CLR,,0.00,WeatherDisplay:10.37,2013-02-05 09:50:00,
2013-02-05 01:55:00,45.0,43.7,30.11,North,349,2.3,2.3,95,0.00,CLR,,0.00,WeatherDisplay:10.37,2013-02-05 09:55:00,
2013-02-05 02:00:00,44.9,43.6,30.11,NNW,347,1.0,0.0,95,0.00,CLR,,0.00,WeatherDisplay:10.37,2013-02-05 10:00:00,
2013-02-05 02:06:00,44.9,43.6,30.11,NNW,333,0.0,0.0,95,0.00,CLR,,0.00,WeatherDisplay:10.37,2013-02-05 10:06:00,
2013-02-05 02:11:00,44.9,43.6,30.11,North,357,2.3,2.3,95,0.00,CLR,,0.00,WeatherDisplay:10.37,2013-02-05 10:11:00,
2013-02-05 02:16:00,44.9,43.6,30.11,NNW,344,2.3,2.3,95,0.00,CLR,,0.00,WeatherDisplay:10.37,2013-02-05 10:16:00,
2013-02-05 02:21:00,44.9,43.6,30.11,NNW,345,1.1,0.0,95,0.00,CLR,,0.00,WeatherDisplay:10.37,2013-02-05 10:21:00,
2013-02-05 02:26:00,44.9,43.6,30.11,North,353,0.0,0.0,95,0.00,CLR,,0.00,WeatherDisplay:10.37,2013-02-05 10:26:00,
2013-02-05 02:31:00,44.9,43.6,30.11,North,4,0.0,0.0,95,0.00,CLR,,0.00,WeatherDisplay:10.37,2013-02-05 10:31:00,
2013-02-05 02:37:00,45.0,43.7,30.10,WNW,295,3.5,3.5,95,0.00,CLR,,0.00,WeatherDisplay:10.37,2013-02-05 10:37:00,
2013-02-05 02:42:00,44.9,43.6,30.10,NW,305,4.0,4.0,95,0.00,CLR,,0.00,WeatherDisplay:10.37,2013-02-05 10:42:00,
2013-02-05 02:47:00,44.9,43.6,30.10,NW,322,0.0,0.0,95,0.00,CLR,,0.00,WeatherDisplay:10.37,2013-02-05 10:47:00,
2013-02-05 02:52:00,44.9,43.6,30.10,WNW,294,2.3,2.3,95,0.00,CLR,,0.00,WeatherDisplay:10.37,2013-02-05 10:52:00,
2013-02-05 02:58:00,44.8,43.5,30.10,WNW,302,0.0,0.0,95,0.00,CLR,,0.00,WeatherDisplay:10.37,2013-02-05 10:58:00,
2013-02-05 03:03:00,44.6,43.3,30.09,NW,314,0.0,0.0,95,0.00,CLR,,0.00,WeatherDisplay:10.37,2013-02-05 11:03:00,
2013-02-05 03:08:00,44.6,43.3,30.09,NW,314,0.0,0.0,95,0.00,CLR,,0.00,WeatherDisplay:10.37,2013-02-05 11:08:00,
2013-02-05 03:13:00,44.6,43.3,30.09,NW,314,1.1,0.0,95,0.00,CLR,,0.00,WeatherDisplay:10.37,2013-02-05 11:13:00,
2013-02-05 03:19:00,44.6,43.3,30.09,NW,314,0.0,0.0,95,0.00,CLR,,0.00,WeatherDisplay:10.37,2013-02-05 11:19:00,
2013-02-05 03:24:00,44.6,43.3,30.09,NW,314,0.0,0.0,95,0.00,CLR,,0.00,WeatherDisplay:10.37,2013-02-05 11:24:00,
2013-02-05 03:29:00,44.5,43.2,30.09,West,281,1.1,1.1,95,0.00,CLR,,0.00,WeatherDisplay:10.37,2013-02-05 11:29:00,
2013-02-05 03:34:00,44.5,43.2,30.09,WSW,246,1.1,1.1,95,0.00,CLR,,0.00,WeatherDisplay:10.37,2013-02-05 11:34:00,
2013-02-05 03:39:00,44.5,43.2,30.09,WSW,240,1.1,1.1,95,0.00,CLR,,0.00,WeatherDisplay:10.37,2013-02-05 11:39:00,
2013-02-05 03:44:00,44.4,43.1,30.10,WSW,243,1.1,1.1,95,0.00,CLR,,0.00,WeatherDisplay:10.37,2013-02-05 11:44:00,
2013-02-05 03:49:00,44.4,43.1,30.09,WSW,240,1.0,0.0,95,0.00,CLR,,0.00,WeatherDisplay:10.37,2013-02-05 11:49:00,
2013-02-05 03:54:00,44.3,43.0,30.09,WSW,238,2.3,2.3,95,0.00,CLR,,0.00,WeatherDisplay:10.37,2013-02-05 11:54:00,
2013-02-05 03:59:00,44.2,42.9,30.09,SW,233,2.3,2.3,95,0.00,CLR,,0.00,WeatherDisplay:10.37,2013-02-05 11:59:00,
2013-02-05 04:04:00,44.2,42.9,30.09,WSW,249,2.3,2.3,95,0.00,CLR,,0.00,WeatherDisplay:10.37,2013-02-05 12:04:00,
2013-02-05 04:09:00,44.2,42.9,30.09,WSW,244,3.0,3.0,95,0.00,CLR,,0.00,WeatherDisplay:10.37,2013-02-05 12:09:00,
2013-02-05 04:14:00,44.2,42.9,30.09,WSW,238,1.1,1.1,95,0.00,CLR,,0.00,WeatherDisplay:10.37,2013-02-05 12:14:00,
2013-02-05 04:20:00,44.1,42.8,30.09,WSW,243,2.3,2.3,95,0.00,CLR,,0.00,WeatherDisplay:10.37,2013-02-05 12:20:00,
2013-02-05 04:25:00,44.2,42.9,30.09,WSW,240,1.1,1.1,95,0.00,CLR,,0.00,WeatherDisplay:10.37,2013-02-05 12:25:00,
2013-02-05 04:30:00,44.1,42.8,30.09,WSW,242,0.0,0.0,95,0.00,CLR,,0.00,WeatherDisplay:10.37,2013-02-05 12:30:00,
2013-02-05 04:35:00,44.3,43.0,30.10,WSW,242,1.1,1.1,95,0.00,CLR,,0.00,WeatherDisplay:10.37,2013-02-05 12:35:00,
2013-02-05 04:40:00,44.3,43.0,30.09,SSW,210,1.1,1.1,95,0.00,CLR,,0.00,WeatherDisplay:10.37,2013-02-05 12:40:00,
2013-02-05 04:45:00,44.1,42.8,30.09,SW,218,0.0,0.0,95,0.00,CLR,,0.00,WeatherDisplay:10.37,2013-02-05 12:45:00,
2013-02-05 04:50:00,44.1,42.8,30.09,SW,218,0.0,0.0,95,0.00,CLR,,0.00,WeatherDisplay:10.37,2013-02-05 12:50:00,
2013-02-05 04:55:00,44.0,42.7,30.09,SW,218,0.0,0.0,95,0.00,CLR,,0.00,WeatherDisplay:10.37,2013-02-05 12:55:00,
2013-02-05 05:01:00,44.0,42.7,30.09,NW,322,1.1,1.1,95,0.00,CLR,,0.00,WeatherDisplay:10.37,2013-02-05 13:01:00,
2013-02-05 05:06:00,43.9,42.6,30.09,North,360,2.0,2.0,95,0.00,CLR,,0.00,WeatherDisplay:10.37,2013-02-05 13:06:00,
2013-02-05 05:12:00,44.0,42.7,30.09,NNW,335,2.3,2.3,95,0.00,CLR,,0.00,WeatherDisplay:10.37,2013-02-05 13:12:00,
2013-02-05 05:17:00,43.9,42.6,30.09,NNE,13,3.5,3.5,95,0.00,CLR,,0.00,WeatherDisplay:10.37,2013-02-05 13:17:00,
2013-02-05 05:22:00,43.9,42.3,30.09,NNW,339,2.3,2.3,94,0.00,CLR,,0.00,WeatherDisplay:10.37,2013-02-05 13:22:00,
2013-02-05 05:27:00,43.9,42.3,30.09,NNE,20,2.3,2.3,94,0.00,CLR,,0.00,WeatherDisplay:10.37,2013-02-05 13:27:00,
2013-02-05 05:32:00,43.9,42.3,30.09,NNW,345,1.1,1.1,94,0.00,CLR,,0.00,WeatherDisplay:10.37,2013-02-05 13:32:00,
2013-02-05 05:37:00,43.9,42.3,30.09,North,353,3.5,3.5,94,0.00,CLR,,0.00,WeatherDisplay:10.37,2013-02-05 13:37:00,
2013-02-05 05:42:00,43.9,42.3,30.09,NNE,23,2.3,2.3,94,0.00,CLR,,0.00,WeatherDisplay:10.37,2013-02-05 13:42:00,
2013-02-05 05:48:00,43.9,42.3,30.09,NNE,23,0.0,0.0,94,0.00,CLR,,0.00,WeatherDisplay:10.37,2013-02-05 13:48:00,
2013-02-05 05:53:00,43.9,42.3,30.09,WSW,255,0.0,0.0,94,0.00,CLR,,0.00,WeatherDisplay:10.37,2013-02-05 13:53:00,
2013-02-05 05:58:00,43.9,42.3,30.09,West,267,1.1,0.0,94,0.00,CLR,,0.00,WeatherDisplay:10.37,2013-02-05 13:58:00,
2013-02-05 06:03:00,43.9,42.3,30.08,North,6,2.3,2.3,94,0.00,CLR,,0.00,WeatherDisplay:10.37,2013-02-05 14:03:00,
2013-02-05 06:08:00,43.9,42.3,30.08,North,4,3.0,3.0,94,0.00,CLR,,0.00,WeatherDisplay:10.37,2013-02-05 14:08:00,
2013-02-05 06:13:00,43.9,42.0,30.09,North,349,3.5,3.5,93,0.00,CLR,,0.00,WeatherDisplay:10.37,2013-02-05 14:13:00,
2013-02-05 06:18:00,44.0,42.1,30.09,NNW,343,2.3,2.3,93,0.00,CLR,,0.00,WeatherDisplay:10.37,2013-02-05 14:18:00,
2013-02-05 06:23:00,44.0,42.1,30.09,NNE,26,3.5,3.5,93,0.00,CLR,,0.00,WeatherDisplay:10.37,2013-02-05 14:23:00,
2013-02-05 06:28:00,44.0,42.1,30.09,NNE,30,2.3,2.3,93,0.00,CLR,,0.00,WeatherDisplay:10.37,2013-02-05 14:28:00,
2013-02-05 06:33:00,44.0,42.1,30.09,NE,49,2.3,2.3,93,0.00,CLR,,0.00,WeatherDisplay:10.37,2013-02-05 14:33:00,
2013-02-05 06:39:00,44.0,42.1,30.09,NE,53,1.1,1.1,93,0.00,CLR,,0.00,WeatherDisplay:10.37,2013-02-05 14:39:00,
2013-02-05 06:44:00,44.0,42.1,30.09,NNE,30,5.0,5.0,93,0.00,CLR,,0.00,WeatherDisplay:10.37,2013-02-05 14:44:00,
2013-02-05 06:49:00,44.1,41.9,30.10,NE,46,3.5,3.9,92,0.00,CLR,,0.00,WeatherDisplay:10.37,2013-02-05 14:49:00,
2013-02-05 06:54:00,44.1,41.9,30.10,NNE,30,3.5,3.5,92,0.00,CLR,,0.00,WeatherDisplay:10.37,2013-02-05 14:54:00,
2013-02-05 06:59:00,44.1,41.9,30.09,NE,56,1.1,1.1,92,0.00,CLR,,0.00,WeatherDisplay:10.37,2013-02-05 14:59:00,
2013-02-05 07:04:00,44.1,41.9,30.09,NE,43,2.3,2.3,92,0.00,CLR,,0.00,WeatherDisplay:10.37,2013-02-05 15:04:00,
2013-02-05 07:09:00,44.0,42.1,30.09,ENE,67,2.3,2.3,93,0.00,CLR,,0.00,WeatherDisplay:10.37,2013-02-05 15:09:00,
2013-02-05 07:15:00,44.0,42.1,30.09,ENE,71,2.3,2.3,93,0.00,CLR,,0.00,WeatherDisplay:10.37,2013-02-05 15:15:00,
2013-02-05 07:20:00,43.9,42.0,30.09,NNE,19,1.1,0.0,93,0.00,CLR,,0.00,WeatherDisplay:10.37,2013-02-05 15:20:00,
2013-02-05 07:25:00,43.9,42.0,30.09,ENE,77,0.0,0.0,93,0.00,CLR,,0.00,WeatherDisplay:10.37,2013-02-05 15:25:00,
2013-02-05 07:31:00,44.0,42.1,30.10,ENE,69,0.0,0.0,93,0.00,CLR,,0.00,WeatherDisplay:10.37,2013-02-05 15:31:00,
2013-02-05 07:36:00,44.1,42.2,30.10,NE,39,0.0,0.0,93,0.00,CLR,,0.00,WeatherDisplay:10.37,2013-02-05 15:36:00,
2013-02-05 07:41:00,44.1,42.2,30.10,NE,39,0.0,0.0,93,0.00,CLR,,0.00,WeatherDisplay:10.37,2013-02-05 15:41:00,
2013-02-05 07:46:00,44.2,42.3,30.10,NNW,340,0.0,0.0,93,0.00,CLR,,0.00,WeatherDisplay:10.37,2013-02-05 15:46:00,
2013-02-05 07:51:00,44.3,42.4,30.10,North,4,2.3,2.3,93,0.00,CLR,,0.00,WeatherDisplay:10.37,2013-02-05 15:51:00,
2013-02-05 07:57:00,44.3,42.4,30.10,NNE,19,2.3,2.3,93,0.00,CLR,,0.00,WeatherDisplay:10.37,2013-02-05 15:57:00,
2013-02-05 08:02:00,44.3,42.4,30.11,NNW,338,1.1,1.1,93,0.00,CLR,,0.00,WeatherDisplay:10.37,2013-02-05 16:02:00,
2013-02-05 08:07:00,44.4,42.5,30.10,NW,314,1.1,0.0,93,0.00,CLR,,0.00,WeatherDisplay:10.37,2013-02-05 16:07:00,
2013-02-05 08:13:00,44.6,42.7,30.11,NW,314,0.0,0.0,93,0.00,CLR,,0.00,WeatherDisplay:10.37,2013-02-05 16:13:00,
2013-02-05 08:18:00,44.8,42.9,30.11,WSW,240,1.1,1.1,93,0.00,CLR,,0.00,WeatherDisplay:10.37,2013-02-05 16:18:00,
2013-02-05 08:23:00,45.0,42.8,30.11,South,174,1.1,1.1,92,0.00,CLR,,0.00,WeatherDisplay:10.37,2013-02-05 16:23:00,
2013-02-05 08:28:00,45.2,43.0,30.11,South,173,1.1,1.1,92,0.00,CLR,,0.00,WeatherDisplay:10.37,2013-02-05 16:28:00,
2013-02-05 08:33:00,45.4,43.2,30.11,South,173,0.0,0.0,92,0.00,CLR,,0.00,WeatherDisplay:10.37,2013-02-05 16:33:00,
2013-02-05 08:38:00,45.7,43.2,30.11,South,172,0.0,0.0,91,0.00,CLR,,0.00,WeatherDisplay:10.37,2013-02-05 16:38:00,
2013-02-05 08:43:00,45.9,43.1,30.11,South,169,0.0,0.0,90,0.00,CLR,,0.00,WeatherDisplay:10.37,2013-02-05 16:43:00,
2013-02-05 08:48:00,46.0,43.2,30.11,South,169,0.0,0.0,90,0.00,CLR,,0.00,WeatherDisplay:10.37,2013-02-05 16:48:00,
2013-02-05 08:53:00,46.1,43.3,30.11,SSE,165,0.0,0.0,90,0.00,CLR,,0.00,WeatherDisplay:10.37,2013-02-05 16:53:00,
2013-02-05 08:58:00,46.2,43.1,30.12,ESE,115,0.0,0.1,89,0.00,CLR,,0.00,WeatherDisplay:10.37,2013-02-05 16:58:00,
2013-02-05 09:03:00,46.1,43.0,30.12,East,79,0.0,0.0,89,0.00,CLR,,0.00,WeatherDisplay:10.37,2013-02-05 17:03:00,
2013-02-05 09:08:00,45.9,42.8,30.12,NE,37,2.3,2.3,89,0.00,CLR,,0.00,WeatherDisplay:10.37,2013-02-05 17:08:00,
2013-02-05 09:14:00,45.8,42.7,30.11,NE,54,3.5,3.5,89,0.00,CLR,,0.00,WeatherDisplay:10.37,2013-02-05 17:14:00,
2013-02-05 09:19:00,46.0,42.9,30.11,NNE,32,3.5,3.5,89,0.00,CLR,,0.00,WeatherDisplay:10.37,2013-02-05 17:19:00,
2013-02-05 09:24:00,46.0,42.9,30.11,NE,56,4.0,4.0,89,0.00,CLR,,0.00,WeatherDisplay:10.37,2013-02-05 17:24:00,
2013-02-05 09:29:00,46.1,43.0,30.11,NE,54,3.5,3.5,89,0.00,CLR,,0.00,WeatherDisplay:10.37,2013-02-05 17:29:00,
2013-02-05 09:34:00,46.3,43.5,30.12,ENE,60,1.1,1.1,90,0.00,CLR,,0.00,WeatherDisplay:10.37,2013-02-05 17:34:00,
2013-02-05 09:39:00,46.7,43.6,30.12,ENE,75,0.0,0.0,89,0.00,CLR,,0.00,WeatherDisplay:10.37,2013-02-05 17:39:00,
2013-02-05 09:44:00,46.8,43.4,30.12,NNE,29,2.0,2.0,88,0.00,CLR,,0.00,WeatherDisplay:10.37,2013-02-05 17:44:00,
2013-02-05 09:49:00,46.9,43.5,30.12,NE,37,3.5,3.5,88,0.00,CLR,,0.00,WeatherDisplay:10.37,2013-02-05 17:49:00,
2013-02-05 09:55:00,47.1,43.7,30.12,NE,54,3.5,3.5,88,0.00,CLR,,0.00,WeatherDisplay:10.37,2013-02-05 17:55:00,
2013-02-05 10:00:00,47.3,43.6,30.12,East,82,2.3,2.3,87,0.00,CLR,,0.00,WeatherDisplay:10.37,2013-02-05 18:00:00,
2013-02-05 10:05:00,47.3,43.3,30.12,ENE,69,1.1,1.1,86,0.00,CLR,,0.00,WeatherDisplay:10.37,2013-02-05 18:05:00,
2013-02-05 10:10:00,47.5,43.8,30.12,NNE,17,4.0,4.0,87,0.00,CLR,,0.00,WeatherDisplay:10.37,2013-02-05 18:10:00,
2013-02-05 10:15:00,47.8,44.1,30.12,NNE,20,3.5,3.5,87,0.00,CLR,,0.00,WeatherDisplay:10.37,2013-02-05 18:15:00,
2013-02-05 10:20:00,48.0,44.3,30.12,North,349,4.6,4.6,87,0.00,CLR,,0.00,WeatherDisplay:10.37,2013-02-05 18:20:00,
2013-02-05 10:26:00,47.9,44.2,30.13,North,354,4.6,4.6,87,0.00,CLR,,0.00,WeatherDisplay:10.37,2013-02-05 18:26:00,
2013-02-05 10:31:00,47.9,44.2,30.13,North,357,3.5,3.5,87,0.00,CLR,,0.00,WeatherDisplay:10.37,2013-02-05 18:31:00,
2013-02-05 10:36:00,48.0,44.3,30.13,NNW,333,5.0,5.0,87,0.00,CLR,,0.00,WeatherDisplay:10.37,2013-02-05 18:36:00,
2013-02-05 10:41:00,48.1,44.4,30.12,NNE,32,3.5,3.5,87,0.00,CLR,,0.00,WeatherDisplay:10.37,2013-02-05 18:41:00,
2013-02-05 10:46:00,48.2,44.2,30.12,NNW,338,5.0,5.0,86,0.00,CLR,,0.00,WeatherDisplay:10.37,2013-02-05 18:46:00,
2013-02-05 10:51:00,48.3,44.6,30.12,NNE,19,5.0,5.0,87,0.00,CLR,,0.00,WeatherDisplay:10.37,2013-02-05 18:51:00,
2013-02-05 10:57:00,48.3,44.6,30.12,NNE,20,3.5,3.5,87,0.00,CLR,,0.00,WeatherDisplay:10.37,2013-02-05 18:57:00,
2013-02-05 11:02:00,48.4,44.7,30.12,North,360,3.5,3.5,87,0.00,CLR,,0.00,WeatherDisplay:10.37,2013-02-05 19:02:00,
2013-02-05 11:07:00,48.5,44.8,30.12,NW,322,1.1,1.1,87,0.00,CLR,,0.00,WeatherDisplay:10.37,2013-02-05 19:07:00,
2013-02-05 11:12:00,48.7,44.7,30.12,NW,318,3.5,3.5,86,0.00,CLR,,0.00,WeatherDisplay:10.37,2013-02-05 19:12:00,
2013-02-05 11:17:00,48.7,44.7,30.12,WNW,290,3.5,3.5,86,0.00,CLR,,0.00,WeatherDisplay:10.37,2013-02-05 19:17:00,
2013-02-05 11:22:00,48.9,45.2,30.12,NW,319,2.3,2.3,87,0.00,CLR,,0.00,WeatherDisplay:10.37,2013-02-05 19:22:00,
2013-02-05 11:27:00,49.2,45.2,30.12,NW,309,3.5,3.5,86,0.00,CLR,,0.00,WeatherDisplay:10.37,2013-02-05 19:27:00,
2013-02-05 11:32:00,49.3,45.3,30.11,North,357,3.5,3.5,86,0.00,CLR,,0.00,WeatherDisplay:10.37,2013-02-05 19:32:00,
2013-02-05 11:37:00,49.5,45.5,30.11,NNE,25,4.0,4.0,86,0.00,CLR,,0.00,WeatherDisplay:10.37,2013-02-05 19:37:00,
2013-02-05 11:43:00,49.5,45.2,30.11,NNW,344,4.0,4.0,85,0.00,CLR,,0.00,WeatherDisplay:10.37,2013-02-05 19:43:00,
2013-02-05 11:48:00,49.4,45.1,30.11,NNW,330,3.5,3.5,85,0.00,CLR,,0.00,WeatherDisplay:10.37,2013-02-05 19:48:00,
2013-02-05 11:53:00,49.6,45.6,30.11,NNW,340,3.5,3.5,86,0.00,CLR,,0.00,WeatherDisplay:10.37,2013-02-05 19:53:00,
2013-02-05 11:58:00,49.9,45.6,30.11,NNW,342,1.1,0.0,85,0.00,CLR,,0.00,WeatherDisplay:10.37,2013-02-05 19:58:00,
2013-02-05 12:03:00,50.4,45.7,30.10,NNW,336,1.1,1.1,84,0.00,CLR,,0.00,WeatherDisplay:10.37,2013-02-05 20:03:00,
2013-02-05 12:09:00,50.7,46.0,30.10,NW,326,3.0,3.0,84,0.00,CLR,,0.00,WeatherDisplay:10.37,2013-02-05 20:09:00,
2013-02-05 12:14:00,50.8,45.8,30.10,NW,326,2.3,2.3,83,0.00,CLR,,0.00,WeatherDisplay:10.37,2013-02-05 20:14:00,
2013-02-05 12:19:00,51.2,45.9,30.10,NE,47,3.5,3.5,82,0.00,CLR,,0.00,WeatherDisplay:10.37,2013-02-05 20:19:00,
2013-02-05 12:24:00,51.4,46.4,30.10,East,82,2.3,2.3,83,0.00,CLR,,0.00,WeatherDisplay:10.37,2013-02-05 20:24:00,
2013-02-05 12:29:00,51.9,46.3,30.09,NNE,14,3.5,3.5,81,0.00,CLR,,0.00,WeatherDisplay:10.37,2013-02-05 20:29:00,
2013-02-05 12:34:00,52.4,46.7,30.09,NE,46,5.0,5.0,81,0.00,CLR,,0.00,WeatherDisplay:10.37,2013-02-05 20:34:00,
2013-02-05 12:39:00,52.3,46.6,30.09,NE,41,6.0,6.0,81,0.00,CLR,,0.00,WeatherDisplay:10.37,2013-02-05 20:39:00,
2013-02-05 12:44:00,52.5,46.5,30.09,ENE,70,5.0,5.0,80,0.00,CLR,,0.00,WeatherDisplay:10.37,2013-02-05 20:44:00,
2013-02-05 12:50:00,52.6,46.3,30.08,NE,45,1.1,1.1,79,0.00,CLR,,0.00,WeatherDisplay:10.37,2013-02-05 20:50:00,
2013-02-05 12:55:00,53.4,46.7,30.08,SW,224,2.3,2.3,78,0.00,CLR,,0.00,WeatherDisplay:10.37,2013-02-05 20:55:00,
2013-02-05 13:00:00,54.1,47.0,30.08,West,279,2.3,2.3,77,0.00,CLR,,0.00,WeatherDisplay:10.37,2013-02-05 21:00:00,
2013-02-05 13:05:00,54.2,46.8,30.08,NNW,328,2.3,2.3,76,0.00,CLR,,0.00,WeatherDisplay:10.37,2013-02-05 21:05:00,
2013-02-05 13:10:00,54.3,46.9,30.08,NE,34,3.5,3.5,76,0.00,CLR,,0.00,WeatherDisplay:10.37,2013-02-05 21:10:00,
2013-02-05 13:15:00,54.0,46.6,30.07,ENE,73,0.0,0.0,76,0.00,CLR,,0.00,WeatherDisplay:10.37,2013-02-05 21:15:00,
2013-02-05 13:20:00,54.6,46.8,30.07,NE,34,2.3,2.3,75,0.00,CLR,,0.00,WeatherDisplay:10.37,2013-02-05 21:20:00,
2013-02-05 13:25:00,55.0,47.2,30.07,ESE,105,3.5,3.5,75,0.00,CLR,,0.00,WeatherDisplay:10.37,2013-02-05 21:25:00,
2013-02-05 13:30:00,55.7,47.9,30.07,South,169,1.1,2.0,75,0.00,CLR,,0.00,WeatherDisplay:10.37,2013-02-05 21:30:00,
2013-02-05 13:35:00,56.6,47.7,30.06,SSE,163,3.5,3.5,72,0.00,CLR,,0.00,WeatherDisplay:10.37,2013-02-05 21:35:00,
2013-02-05 13:40:00,56.9,48.0,30.06,East,92,5.8,5.8,72,0.00,CLR,,0.00,WeatherDisplay:10.37,2013-02-05 21:40:00,
2013-02-05 13:45:00,56.9,48.0,30.06,South,174,1.1,0.0,72,0.00,CLR,,0.00,WeatherDisplay:10.37,2013-02-05 21:45:00,
2013-02-05 13:50:00,57.4,47.7,30.06,SE,143,1.1,1.1,70,0.00,CLR,,0.00,WeatherDisplay:10.37,2013-02-05 21:50:00,
2013-02-05 13:55:00,57.8,48.1,30.06,SSE,150,1.1,0.0,70,0.00,CLR,,0.00,WeatherDisplay:10.37,2013-02-05 21:55:00,
2013-02-05 14:01:00,57.9,47.8,30.06,ESE,107,3.5,3.5,69,0.00,CLR,,0.00,WeatherDisplay:10.37,2013-02-05 22:01:00,
2013-02-05 14:06:00,57.8,48.1,30.06,East,84,2.3,2.3,70,0.00,CLR,,0.00,WeatherDisplay:10.37,2013-02-05 22:06:00,
2013-02-05 14:11:00,58.5,48.7,30.06,NNE,32,3.5,3.5,70,0.00,CLR,,0.00,WeatherDisplay:10.37,2013-02-05 22:11:00,
2013-02-05 14:16:00,58.4,47.9,30.06,SE,145,2.3,2.3,68,0.00,CLR,,0.00,WeatherDisplay:10.37,2013-02-05 22:16:00,
2013-02-05 14:21:00,58.5,48.0,30.06,East,80,3.0,3.0,68,0.00,CLR,,0.00,WeatherDisplay:10.37,2013-02-05 22:21:00,
2013-02-05 14:26:00,58.5,48.4,30.05,East,82,2.3,2.3,69,0.00,CLR,,0.00,WeatherDisplay:10.37,2013-02-05 22:26:00,
2013-02-05 14:31:00,58.9,48.4,30.05,South,182,3.0,3.0,68,0.00,CLR,,0.00,WeatherDisplay:10.37,2013-02-05 22:31:00,
2013-02-05 14:36:00,59.7,48.3,30.05,South,182,3.5,3.5,66,0.00,CLR,,0.00,WeatherDisplay:10.37,2013-02-05 22:36:00,
2013-02-05 14:41:00,59.9,48.5,30.05,East,97,3.5,3.5,66,0.00,CLR,,0.00,WeatherDisplay:10.37,2013-02-05 22:41:00,
2013-02-05 14:47:00,60.2,48.8,30.05,SSW,193,1.1,1.1,66,0.00,CLR,,0.00,WeatherDisplay:10.37,2013-02-05 22:47:00,
2013-02-05 14:52:00,60.9,48.6,30.05,SSE,163,2.3,2.3,64,0.00,CLR,,0.00,WeatherDisplay:10.37,2013-02-05 22:52:00,
2013-02-05 14:57:00,61.3,49.4,30.05,South,175,2.3,2.3,65,0.00,CLR,,0.00,WeatherDisplay:10.37,2013-02-05 22:57:00,
2013-02-05 15:02:00,61.8,48.6,30.05,SW,231,3.5,3.5,62,0.00,CLR,,0.00,WeatherDisplay:10.37,2013-02-05 23:02:00,
2013-02-05 15:07:00,62.1,48.9,30.05,SW,226,2.3,2.3,62,0.00,CLR,,0.00,WeatherDisplay:10.37,2013-02-05 23:07:00,
2013-02-05 15:12:00,61.9,48.7,30.04,SSE,149,1.1,1.1,62,0.00,CLR,,0.00,WeatherDisplay:10.37,2013-02-05 23:12:00,
2013-02-05 15:17:00,62.1,48.9,30.05,West,262,3.5,3.5,62,0.00,CLR,,0.00,WeatherDisplay:10.37,2013-02-05 23:17:00,
2013-02-05 15:22:00,62.6,49.4,30.05,SSW,194,2.3,2.3,62,0.00,CLR,,0.00,WeatherDisplay:10.37,2013-02-05 23:22:00,
2013-02-05 15:27:00,63.0,49.3,30.05,WSW,243,2.3,2.3,61,0.00,CLR,,0.00,WeatherDisplay:10.37,2013-02-05 23:27:00,
2013-02-05 15:32:00,63.4,49.3,30.05,SSE,154,2.3,2.3,60,0.00,CLR,,0.00,WeatherDisplay:10.37,2013-02-05 23:32:00,
2013-02-05 15:37:00,63.4,49.3,30.05,SSE,163,4.0,4.0,60,0.00,CLR,,0.00,WeatherDisplay:10.37,2013-02-05 23:37:00,
2013-02-05 15:42:00,63.0,49.3,30.05,SSE,148,3.5,3.5,61,0.00,CLR,,0.00,WeatherDisplay:10.37,2013-02-05 23:42:00,
2013-02-05 15:48:00,62.8,50.0,30.05,South,177,2.3,2.3,63,0.00,CLR,,0.00,WeatherDisplay:10.37,2013-02-05 23:48:00,
2013-02-05 15:53:00,63.6,49.9,30.05,SSE,151,2.3,2.3,61,0.00,CLR,,0.00,WeatherDisplay:10.37,2013-02-05 23:53:00,
2013-02-05 15:58:00,63.8,50.1,30.05,NE,45,2.3,2.3,61,0.00,CLR,,0.00,WeatherDisplay:10.37,2013-02-05 23:58:00,
2013-02-05 16:03:00,62.8,48.7,30.05,North,357,6.9,6.9,60,0.00,CLR,,0.00,WeatherDisplay:10.37,2013-02-06 00:03:00,
2013-02-05 16:08:00,62.8,47.8,30.05,North,5,11.5,11.5,58,0.00,CLR,,0.00,WeatherDisplay:10.37,2013-02-06 00:08:00,
2013-02-05 16:14:00,62.5,47.5,30.05,NNW,341,9.2,9.2,58,0.00,CLR,,0.00,WeatherDisplay:10.37,2013-02-06 00:14:00,
2013-02-05 16:19:00,62.2,48.1,30.05,NNW,338,10.4,10.4,60,0.00,CLR,,0.00,WeatherDisplay:10.37,2013-02-06 00:19:00,
2013-02-05 16:24:00,62.1,47.1,30.05,NW,305,9.2,9.2,58,0.00,CLR,,0.00,WeatherDisplay:10.37,2013-02-06 00:24:00,
2013-02-05 16:29:00,61.7,47.2,30.05,North,349,9.2,9.2,59,0.00,CLR,,0.00,WeatherDisplay:10.37,2013-02-06 00:29:00,
2013-02-05 16:34:00,61.4,46.9,30.06,NW,321,5.0,5.0,59,0.00,CLR,,0.00,WeatherDisplay:10.37,2013-02-06 00:34:00,
2013-02-05 16:39:00,62.0,47.0,30.06,NW,307,2.3,2.3,58,0.00,CLR,,0.00,WeatherDisplay:10.37,2013-02-06 00:39:00,
2013-02-05 16:44:00,62.0,46.6,30.06,NW,323,3.0,3.0,57,0.00,CLR,,0.00,WeatherDisplay:10.37,2013-02-06 00:44:00,
2013-02-05 16:49:00,62.1,47.1,30.06,WSW,248,2.3,2.3,58,0.00,CLR,,0.00,WeatherDisplay:10.37,2013-02-06 00:49:00,
2013-02-05 16:54:00,62.0,47.0,30.06,WSW,242,2.3,2.3,58,0.00,CLR,,0.00,WeatherDisplay:10.37,2013-02-06 00:54:00,
2013-02-05 16:59:00,61.5,47.0,30.06,WSW,243,2.3,2.3,59,0.00,CLR,,0.00,WeatherDisplay:10.37,2013-02-06 00:59:00,
2013-02-05 17:04:00,60.7,46.3,30.06,NNW,332,2.3,2.3,59,0.00,CLR,,0.00,WeatherDisplay:10.37,2013-02-06 01:04:00,
2013-02-05 17:09:00,60.0,46.1,30.06,NNW,330,4.0,4.0,60,0.00,CLR,,0.00,WeatherDisplay:10.37,2013-02-06 01:09:00,
2013-02-05 17:15:00,59.5,45.6,30.06,NW,326,3.5,3.5,60,0.00,CLR,,0.00,WeatherDisplay:10.37,2013-02-06 01:15:00,
2013-02-05 17:20:00,59.1,45.7,30.06,NW,312,3.5,3.5,61,0.00,CLR,,0.00,WeatherDisplay:10.37,2013-02-06 01:20:00,
2013-02-05 17:25:00,58.9,45.0,30.06,WNW,297,4.0,4.0,60,0.00,CLR,,0.00,WeatherDisplay:10.37,2013-02-06 01:25:00,
2013-02-05 17:30:00,58.6,45.2,30.06,WNW,295,3.5,3.5,61,0.00,CLR,,0.00,WeatherDisplay:10.37,2013-02-06 01:30:00,
2013-02-05 17:36:00,58.3,44.9,30.06,NW,319,3.5,3.5,61,0.00,CLR,,0.00,WeatherDisplay:10.37,2013-02-06 01:36:00,
2013-02-05 17:41:00,58.2,45.2,30.07,NNW,328,5.0,5.0,62,0.00,CLR,,0.00,WeatherDisplay:10.37,2013-02-06 01:41:00,
2013-02-05 17:46:00,58.0,45.0,30.07,NW,319,5.8,5.8,62,0.00,CLR,,0.00,WeatherDisplay:10.37,2013-02-06 01:46:00,
2013-02-05 17:51:00,57.4,44.9,30.07,NNE,25,3.5,3.5,63,0.00,CLR,,0.00,WeatherDisplay:10.37,2013-02-06 01:51:00,
2013-02-05 17:56:00,56.0,44.8,30.07,NE,34,3.5,3.5,66,0.00,CLR,,0.00,WeatherDisplay:10.37,2013-02-06 01:56:00,
2013-02-05 18:01:00,55.7,44.9,30.07,NNE,26,3.5,3.5,67,0.00,CLR,,0.00,WeatherDisplay:10.37,2013-02-06 02:01:00,
2013-02-05 18:06:00,55.4,45.0,30.07,NNW,334,1.1,1.1,68,0.00,CLR,,0.00,WeatherDisplay:10.37,2013-02-06 02:06:00,
2013-02-05 18:11:00,54.9,44.9,30.07,WNW,288,2.3,2.3,69,0.00,CLR,,0.00,WeatherDisplay:10.37,2013-02-06 02:11:00,
2013-02-05 18:16:00,54.8,44.8,30.07,NNW,330,1.1,1.1,69,0.00,CLR,,0.00,WeatherDisplay:10.37,2013-02-06 02:16:00,
2013-02-05 18:22:00,54.0,44.4,30.07,North,4,1.1,1.1,70,0.00,CLR,,0.00,WeatherDisplay:10.37,2013-02-06 02:22:00,
2013-02-05 18:27:00,53.6,44.4,30.07,North,4,1.1,0.0,71,0.00,CLR,,0.00,WeatherDisplay:10.37,2013-02-06 02:27:00,
2013-02-05 18:32:00,53.1,44.3,30.07,NE,34,1.1,0.0,72,0.00,CLR,,0.00,WeatherDisplay:10.37,2013-02-06 02:32:00,
2013-02-05 18:37:00,52.4,44.0,30.07,ENE,65,0.0,0.0,73,0.00,CLR,,0.00,WeatherDisplay:10.37,2013-02-06 02:37:00,
2013-02-05 18:42:00,52.2,44.2,30.08,NNW,338,2.3,2.3,74,0.00,CLR,,0.00,WeatherDisplay:10.37,2013-02-06 02:42:00,
2013-02-05 18:47:00,52.8,44.4,30.08,NW,314,2.3,2.3,73,0.00,CLR,,0.00,WeatherDisplay:10.37,2013-02-06 02:47:00,
2013-02-05 18:52:00,53.2,44.4,30.08,NNW,336,2.3,2.3,72,0.00,CLR,,0.00,WeatherDisplay:10.37,2013-02-06 02:52:00,
2013-02-05 18:57:00,52.9,44.5,30.08,NW,324,3.5,3.5,73,0.00,CLR,,0.00,WeatherDisplay:10.37,2013-02-06 02:57:00,
2013-02-05 19:02:00,52.2,43.8,30.09,NE,37,3.5,3.5,73,0.00,CLR,,0.00,WeatherDisplay:10.37,2013-02-06 03:02:00,
2013-02-05 19:08:00,51.3,44.0,30.09,NE,53,3.5,3.5,76,0.00,CLR,,0.00,WeatherDisplay:10.37,2013-02-06 03:08:00,
2013-02-05 19:13:00,51.1,43.8,30.09,NE,53,1.1,1.1,76,0.00,CLR,,0.00,WeatherDisplay:10.37,2013-02-06 03:13:00,
2013-02-05 19:18:00,50.6,44.0,30.09,WSW,238,1.1,0.0,78,0.00,CLR,,0.00,WeatherDisplay:10.37,2013-02-06 03:18:00,
2013-02-05 19:23:00,50.3,43.7,30.10,WSW,238,0.0,0.0,78,0.00,CLR,,0.00,WeatherDisplay:10.37,2013-02-06 03:23:00,
2013-02-05 19:28:00,50.0,43.7,30.10,ENE,70,2.0,2.0,79,0.00,CLR,,0.00,WeatherDisplay:10.37,2013-02-06 03:28:00,
2013-02-05 19:33:00,50.1,43.8,30.10,NE,49,3.0,3.0,79,0.00,CLR,,0.00,WeatherDisplay:10.37,2013-02-06 03:33:00,
2013-02-05 19:38:00,51.6,45.0,30.10,North,350,3.5,3.5,78,0.00,CLR,,0.00,WeatherDisplay:10.37,2013-02-06 03:38:00,
2013-02-05 19:44:00,52.1,44.8,30.10,NW,316,2.3,2.3,76,0.00,CLR,,0.00,WeatherDisplay:10.37,2013-02-06 03:44:00,
2013-02-05 19:49:00,51.9,44.6,30.10,NW,314,2.3,2.3,76,0.00,CLR,,0.00,WeatherDisplay:10.37,2013-02-06 03:49:00,
2013-02-05 19:54:00,51.7,44.4,30.10,NW,318,2.3,2.3,76,0.00,CLR,,0.00,WeatherDisplay:10.37,2013-02-06 03:54:00,
2013-02-05 19:59:00,51.4,44.4,30.11,NNW,331,2.3,2.3,77,0.00,CLR,,0.00,WeatherDisplay:10.37,2013-02-06 03:59:00,
2013-02-05 20:04:00,50.3,43.7,30.11,NNW,334,2.3,2.3,78,0.00,CLR,,0.00,WeatherDisplay:10.37,2013-02-06 04:04:00,
2013-02-05 20:09:00,49.4,43.8,30.11,NW,321,3.5,3.5,81,0.00,CLR,,0.00,WeatherDisplay:10.37,2013-02-06 04:09:00,
2013-02-05 20:14:00,49.6,43.7,30.12,NW,325,2.0,2.0,80,0.00,CLR,,0.00,WeatherDisplay:10.37,2013-02-06 04:14:00,
2013-02-05 20:19:00,49.4,43.8,30.12,NW,311,3.5,3.5,81,0.00,CLR,,0.00,WeatherDisplay:10.37,2013-02-06 04:19:00,
2013-02-05 20:24:00,50.1,44.2,30.12,NW,321,3.5,3.5,80,0.00,CLR,,0.00,WeatherDisplay:10.37,2013-02-06 04:24:00,
2013-02-05 20:29:00,50.5,44.2,30.12,NW,311,3.5,3.5,79,0.00,CLR,,0.00,WeatherDisplay:10.37,2013-02-06 04:29:00,
2013-02-05 20:34:00,49.9,43.3,30.12,NNW,338,3.5,3.5,78,0.00,CLR,,0.00,WeatherDisplay:10.37,2013-02-06 04:34:00,
2013-02-05 20:39:00,48.5,42.9,30.12,NNW,329,3.5,3.5,81,0.00,CLR,,0.00,WeatherDisplay:10.37,2013-02-06 04:39:00,
2013-02-05 20:44:00,47.8,42.3,30.12,NW,318,2.3,2.3,81,0.00,CLR,,0.00,WeatherDisplay:10.37,2013-02-06 04:44:00,
2013-02-05 20:50:00,47.3,42.4,30.12,NNW,339,3.5,3.5,83,0.00,CLR,,0.00,WeatherDisplay:10.37,2013-02-06 04:50:00,
2013-02-05 20:55:00,47.1,42.8,30.12,NW,316,3.5,3.5,85,0.00,CLR,,0.00,WeatherDisplay:10.37,2013-02-06 04:55:00,
2013-02-05 21:00:00,48.0,43.4,30.12,NNW,332,3.5,3.5,84,0.00,CLR,,0.00,WeatherDisplay:10.37,2013-02-06 05:00:00,
2013-02-05 21:01:00,48.1,43.5,30.12,NW,314,3.5,3.5,84,0.00,CLR,,0.00,WeatherDisplay:10.37,2013-02-06 05:01:00,
2013-02-05 21:02:00,48.3,43.7,30.12,NW,318,3.5,3.5,84,0.00,CLR,,0.00,WeatherDisplay:10.37,2013-02-06 05:02:00,
2013-02-05 21:05:00,48.5,43.3,30.12,WNW,299,2.3,2.3,82,0.00,CLR,,0.00,WeatherDisplay:10.37,2013-02-06 05:05:00,
2013-02-05 21:11:00,48.5,43.3,30.12,NW,322,3.5,3.5,82,0.00,CLR,,0.00,WeatherDisplay:10.37,2013-02-06 05:11:00,
2013-02-05 21:16:00,48.6,43.0,30.13,NW,311,3.5,3.5,81,0.00,CLR,,0.00,WeatherDisplay:10.37,2013-02-06 05:16:00,
2013-02-05 21:21:00,48.6,43.0,30.13,North,349,3.5,3.5,81,0.00,CLR,,0.00,WeatherDisplay:10.37,2013-02-06 05:21:00,
2013-02-05 21:26:00,48.0,41.8,30.13,North,8,2.3,2.3,79,0.00,CLR,,0.00,WeatherDisplay:10.37,2013-02-06 05:26:00,
2013-02-05 21:31:00,46.8,41.6,30.14,NNW,329,3.5,3.5,82,0.00,CLR,,0.00,WeatherDisplay:10.37,2013-02-06 05:31:00,
2013-02-05 21:36:00,46.4,41.8,30.14,NW,326,3.5,3.5,84,0.00,CLR,,0.00,WeatherDisplay:10.37,2013-02-06 05:36:00,
2013-02-05 21:41:00,46.5,42.2,30.14,NW,310,3.5,3.5,85,0.00,CLR,,0.00,WeatherDisplay:10.37,2013-02-06 05:41:00,
2013-02-05 21:46:00,46.9,41.7,30.14,North,351,3.5,3.5,82,0.00,CLR,,0.00,WeatherDisplay:10.37,2013-02-06 05:46:00,
2013-02-05 21:51:00,46.2,41.3,30.14,NW,322,2.3,2.3,83,0.00,CLR,,0.00,WeatherDisplay:10.37,2013-02-06 05:51:00,
2013-02-05 21:57:00,46.6,42.0,30.14,WNW,296,4.6,4.6,84,0.00,CLR,,0.00,WeatherDisplay:10.37,2013-02-06 05:57:00,
2013-02-05 22:02:00,47.1,42.2,30.14,NW,319,4.6,4.6,83,0.00,CLR,,0.00,WeatherDisplay:10.37,2013-02-06 06:02:00,
2013-02-05 22:07:00,47.4,41.9,30.14,NW,314,3.5,3.5,81,0.00,CLR,,0.00,WeatherDisplay:10.37,2013-02-06 06:07:00,
2013-02-05 22:12:00,47.5,42.0,30.14,NW,314,3.5,3.5,81,0.00,CLR,,0.00,WeatherDisplay:10.37,2013-02-06 06:12:00,
2013-02-05 22:17:00,47.5,41.6,30.15,NNW,340,3.5,3.5,80,0.00,CLR,,0.00,WeatherDisplay:10.37,2013-02-06 06:17:00,
2013-02-05 22:22:00,47.6,41.7,30.15,North,9,5.8,5.8,80,0.00,CLR,,0.00,WeatherDisplay:10.37,2013-02-06 06:22:00,
2013-02-05 22:27:00,47.1,41.2,30.15,NNW,336,3.5,3.5,80,0.00,CLR,,0.00,WeatherDisplay:10.37,2013-02-06 06:27:00,
2013-02-05 22:32:00,46.4,40.9,30.15,NW,316,5.0,5.0,81,0.00,CLR,,0.00,WeatherDisplay:10.37,2013-02-06 06:32:00,
2013-02-05 22:37:00,45.9,41.0,30.15,NW,322,3.5,3.5,83,0.00,CLR,,0.00,WeatherDisplay:10.37,2013-02-06 06:37:00,
2013-02-05 22:42:00,45.9,41.0,30.15,North,353,3.5,3.5,83,0.00,CLR,,0.00,WeatherDisplay:10.37,2013-02-06 06:42:00,
2013-02-05 22:48:00,45.9,41.0,30.15,NNW,330,5.8,5.8,83,0.00,CLR,,0.00,WeatherDisplay:10.37,2013-02-06 06:48:00,
2013-02-05 22:53:00,45.9,41.0,30.15,NW,323,4.6,4.6,83,0.00,CLR,,0.00,WeatherDisplay:10.37,2013-02-06 06:53:00,
2013-02-05 22:58:00,45.6,40.4,30.15,NNW,333,4.6,4.6,82,0.00,CLR,,0.00,WeatherDisplay:10.37,2013-02-06 06:58:00,
2013-02-05 23:03:00,45.1,39.9,30.15,NNW,345,3.5,3.5,82,0.00,CLR,,0.00,WeatherDisplay:10.37,2013-02-06 07:03:00,
2013-02-05 23:08:00,44.6,40.1,30.15,NNW,333,3.5,3.5,84,0.00,CLR,,0.00,WeatherDisplay:10.37,2013-02-06 07:08:00,
2013-02-05 23:13:00,45.0,40.8,30.15,NW,310,3.5,3.5,85,0.00,CLR,,0.00,WeatherDisplay:10.37,2013-02-06 07:13:00,
2013-02-05 23:18:00,45.6,41.0,30.15,NW,309,1.1,1.1,84,0.00,CLR,,0.00,WeatherDisplay:10.37,2013-02-06 07:18:00,
2013-02-05 23:23:00,45.8,40.9,30.16,NW,311,1.1,1.1,83,0.00,CLR,,0.00,WeatherDisplay:10.37,2013-02-06 07:23:00,
2013-02-05 23:28:00,45.6,40.4,30.16,NNW,338,2.3,2.3,82,0.00,CLR,,0.00,WeatherDisplay:10.37,2013-02-06 07:28:00,
2013-02-05 23:33:00,45.8,40.9,30.16,NW,314,3.5,3.5,83,0.00,CLR,,0.00,WeatherDisplay:10.37,2013-02-06 07:33:00,
2013-02-05 23:38:00,45.7,40.8,30.16,NW,316,3.5,3.5,83,0.00,CLR,,0.00,WeatherDisplay:10.37,2013-02-06 07:38:00,
2013-02-05 23:43:00,45.9,41.0,30.16,NNW,334,6.0,6.0,83,0.00,CLR,,0.00,WeatherDisplay:10.37,2013-02-06 07:43:00,
2013-02-05 23:48:00,45.9,40.7,30.17,NNW,340,3.5,3.5,82,0.00,CLR,,0.00,WeatherDisplay:10.37,2013-02-06 07:48:00,
2013-02-05 23:53:00,45.9,41.0,30.17,NW,323,5.8,5.8,83,0.00,CLR,,0.00,WeatherDisplay:10.37,2013-02-06 07:53:00,
2013-02-05 23:58:00,46.0,40.8,30.17,NNE,17,8.1,8.1,82,0.00,CLR,,0.00,WeatherDisplay:10.37,2013-02-06 07:58:00,